Time,TemperatureF,DewpointF,PressureIn,WindDirection,WindDirectionDegrees,WindSpeedMPH,WindSpeedGustMPH,Humidity,HourlyPrecipIn,Conditions,Clouds,dailyrainin,SolarRadiationWatts/m^2,SoftwareType,DateUTC
2013-01-23 00:03:00,60.5,52.5,30.23,NNW,348,0.0,3.0,75,0.00,,---,0.00,0.00,VWS V14.01,2013-01-23 05:03:00,
2013-01-23 01:03:00,58.1,50.9,30.23,NNW,348,0.0,2.0,77,0.00,,---,0.00,0.00,VWS V14.01,2013-01-23 06:03:00,
2013-01-23 01:33:00,55.8,49.7,30.23,NNW,348,0.0,1.0,80,0.00,,---,0.00,0.00,VWS V14.01,2013-01-23 06:33:00,
2013-01-23 02:03:00,54.1,48.4,30.23,NNW,348,0.0,3.0,81,0.00,,---,0.00,0.00,VWS V14.01,2013-01-23 07:03:00,
2013-01-23 02:33:00,53.4,48.0,30.23,NNW,347,0.0,3.0,82,0.00,,---,0.00,0.00,VWS V14.01,2013-01-23 07:33:00,
2013-01-23 03:03:00,52.7,47.4,30.24,NNW,346,0.0,2.0,82,0.00,,---,0.00,0.00,VWS V14.01,2013-01-23 08:03:00,
2013-01-23 03:33:00,52.3,47.0,30.23,NNW,346,0.0,2.0,82,0.00,,---,0.00,0.00,VWS V14.01,2013-01-23 08:33:00,
2013-01-23 04:03:00,52.0,46.7,30.23,NNW,346,0.0,2.0,82,0.00,,---,0.00,0.00,VWS V14.01,2013-01-23 09:03:00,
2013-01-23 04:33:00,51.7,45.7,30.23,NNW,346,0.0,1.0,80,0.00,,---,0.00,0.00,VWS V14.01,2013-01-23 09:33:00,
2013-01-23 05:03:00,51.4,44.4,30.24,NW,315,0.0,5.0,77,0.00,,---,0.00,0.00,VWS V14.01,2013-01-23 10:03:00,
2013-01-23 05:33:00,51.5,44.5,30.25,NW,313,0.0,4.0,77,0.00,,---,0.00,0.00,VWS V14.01,2013-01-23 10:33:00,
2013-01-23 06:03:00,51.6,45.0,30.26,NW,314,0.0,5.0,78,0.00,,---,0.00,0.00,VWS V14.01,2013-01-23 11:03:00,
2013-01-23 06:33:00,51.5,45.2,30.27,NW,314,0.0,4.0,79,0.00,,---,0.00,0.00,VWS V14.01,2013-01-23 11:33:00,
2013-01-23 07:03:00,51.4,45.5,30.27,NW,313,0.0,3.0,80,0.00,,---,0.00,0.00,VWS V14.01,2013-01-23 12:03:00,
2013-01-23 07:33:00,51.8,45.8,30.27,NNW,338,0.0,5.0,80,0.00,,---,0.00,18.00,VWS V14.01,2013-01-23 12:33:00,
2013-01-23 08:03:00,52.8,47.5,30.28,NNW,339,0.0,6.0,82,0.00,,---,0.00,40.00,VWS V14.01,2013-01-23 13:03:00,
2013-01-23 08:33:00,54.5,49.1,30.29,NNW,336,0.0,7.0,82,0.00,,---,0.00,216.00,VWS V14.01,2013-01-23 13:33:00,
2013-01-23 09:03:00,57.3,51.2,30.30,NW,317,0.0,6.0,80,0.00,,---,0.00,197.00,VWS V14.01,2013-01-23 14:03:00,
2013-01-23 09:33:00,62.4,55.1,30.31,North,360,0.0,11.0,77,0.00,,---,0.00,352.00,VWS V14.01,2013-01-23 14:33:00,
2013-01-23 10:03:00,64.5,55.3,30.31,WNW,302,4.0,13.0,72,0.00,,---,0.00,496.00,VWS V14.01,2013-01-23 15:03:00,
2013-01-23 10:33:00,66.0,56.0,30.31,NNW,328,11.0,14.0,70,0.00,,---,0.00,585.00,VWS V14.01,2013-01-23 15:33:00,
2013-01-23 11:03:00,67.0,57.3,30.31,NNW,327,5.0,15.0,71,0.00,,---,0.00,622.00,VWS V14.01,2013-01-23 16:03:00,
2013-01-23 11:33:00,68.3,57.3,30.31,NNW,334,5.0,16.0,68,0.00,,---,0.00,652.00,VWS V14.01,2013-01-23 16:33:00,
2013-01-23 12:03:00,68.7,58.1,30.29,North,349,2.0,15.0,69,0.00,,---,0.00,682.00,VWS V14.01,2013-01-23 17:03:00,
2013-01-23 12:33:00,69.9,58.9,30.28,NW,325,4.0,12.0,68,0.00,,---,0.00,693.00,VWS V14.01,2013-01-23 17:33:00,
2013-01-23 13:03:00,70.1,58.7,30.27,North,355,3.0,14.0,67,0.00,,---,0.00,686.00,VWS V14.01,2013-01-23 18:03:00,
2013-01-23 13:33:00,70.6,58.7,30.25,NW,323,2.0,11.0,66,0.00,,---,0.00,670.00,VWS V14.01,2013-01-23 18:33:00,
2013-01-23 14:03:00,70.1,58.2,30.25,NNW,343,3.0,13.0,66,0.00,,---,0.00,628.00,VWS V14.01,2013-01-23 19:03:00,
2013-01-23 14:33:00,69.5,57.7,30.25,North,350,9.0,16.0,66,0.00,,---,0.00,570.00,VWS V14.01,2013-01-23 19:33:00,
2013-01-23 15:03:00,70.0,56.8,30.24,North,355,9.0,13.0,63,0.00,,---,0.00,508.00,VWS V14.01,2013-01-23 20:03:00,
2013-01-23 15:33:00,69.0,56.8,30.25,North,355,4.0,14.0,65,0.00,,---,0.00,427.00,VWS V14.01,2013-01-23 20:33:00,
2013-01-23 16:03:00,67.5,54.9,30.25,NW,325,8.0,13.0,64,0.00,,---,0.00,338.00,VWS V14.01,2013-01-23 21:03:00,
2013-01-23 16:33:00,66.4,53.4,30.26,NNW,338,5.0,12.0,63,0.00,,---,0.00,239.00,VWS V14.01,2013-01-23 21:33:00,
2013-01-23 17:03:00,65.8,52.9,30.26,NNW,340,2.0,10.0,63,0.00,,---,0.00,118.00,VWS V14.01,2013-01-23 22:03:00,
2013-01-23 17:33:00,64.2,51.8,30.27,NNW,346,0.0,7.0,64,0.00,,---,0.00,28.00,VWS V14.01,2013-01-23 22:33:00,
2013-01-23 18:03:00,61.8,51.5,30.26,NNW,338,0.0,6.0,69,0.00,,---,0.00,0.00,VWS V14.01,2013-01-23 23:03:00,
2013-01-23 18:33:00,60.0,51.3,30.26,NNW,338,0.0,0.0,73,0.00,,---,0.00,0.00,VWS V14.01,2013-01-23 23:33:00,
2013-01-23 19:03:00,58.6,51.1,30.27,NNW,338,0.0,0.0,76,0.00,,---,0.00,0.00,VWS V14.01,2013-01-24 00:03:00,
2013-01-23 19:33:00,57.4,51.3,30.27,NNW,338,0.0,0.0,80,0.00,,---,0.00,0.00,VWS V14.01,2013-01-24 00:33:00,
2013-01-23 20:03:00,56.4,51.0,30.28,NNW,338,0.0,0.0,82,0.00,,---,0.00,0.00,VWS V14.01,2013-01-24 01:03:00,
2013-01-23 20:33:00,55.5,50.8,30.28,NNW,338,0.0,0.0,84,0.00,,---,0.00,0.00,VWS V14.01,2013-01-24 01:33:00,
2013-01-23 21:03:00,54.5,50.7,30.29,NNW,338,0.0,0.0,87,0.00,,---,0.00,0.00,VWS V14.01,2013-01-24 02:03:00,
2013-01-23 21:33:00,53.7,50.5,30.28,NNW,338,0.0,0.0,89,0.00,,---,0.00,0.00,VWS V14.01,2013-01-24 02:33:00,
2013-01-23 22:03:00,53.0,50.2,30.28,NNW,338,0.0,0.0,90,0.00,,---,0.00,0.00,VWS V14.01,2013-01-24 03:03:00,
2013-01-23 22:33:00,52.4,49.8,30.28,NNW,338,0.0,0.0,91,0.00,,---,0.00,0.00,VWS V14.01,2013-01-24 03:33:00,
2013-01-23 23:03:00,52.1,49.6,30.27,NNW,338,0.0,0.0,91,0.00,,---,0.00,0.00,VWS V14.01,2013-01-24 04:03:00,
2013-01-23 23:33:00,51.8,49.3,30.27,NNW,338,0.0,0.0,91,0.00,,---,0.00,0.00,VWS V14.01,2013-01-24 04:33:00,